D/T METAR WX W/DIR W/SPE G/SPE TEMP DEWP
22/01/20 06:50 EGDY 220650Z 00000KT 0300 FG VV/// 00/00 Q1038 NOSIG RMK RED RED FG N (0°) 0°C 0°C
22/01/20 05:50 EGDY 220550Z 00000KT 0700 FZFG OVC002 00/M00 Q1038 RED FZFG N (0°) 0°C 0°C
22/01/20 04:50 EGDY 220450Z AUTO 00000KT 1600 BR BKN002/// BKN009/// M00/M00 Q1038 BR N (0°) 0°C 0°C
22/01/20 03:50 EGDY 220350Z AUTO 00000KT 2000 BR SCT002/// BKN009/// M00/M00 Q1038 BR N (0°) 0°C 0°C
22/01/20 02:50 EGDY 220250Z 00000KT 1000 BR BKN002 M00/M01 Q1039 AMB BR N (0°) 0°C -1°C
22/01/20 01:50 EGDY 220150Z AUTO 00000KT 1900 BR OVC001/// M01/M01 Q1039 RESN BR N (0°) -1°C -1°C
22/01/20 00:50 EGDY 220050Z AUTO 00000KT 0050 FG VV/// M01/M02 Q1040 FG N (0°) -1°C -2°C
21/01/20 23:50 EGDY 212350Z AUTO 00000KT 0050 FG VV/// M02/M02 Q1040 FG N (0°) -2°C -2°C
21/01/20 22:50 EGDY 212250Z AUTO 00000KT 0050 FG VV/// M02/M02 Q1040 FG N (0°) -2°C -2°C
21/01/20 21:50 EGDY 212150Z AUTO 00000KT 1600 BR OVC002/// M02/M03 Q1040 RESN BR N (0°) -2°C -3°C
21/01/20 20:50 EGDY 212050Z AUTO 00000KT 0150 -SN BKN002/// M03/M03 Q1040 -SN N (0°) -3°C -3°C
21/01/20 19:50 EGDY 211950Z AUTO 00000KT 0300 FG FEW005/// BKN008/// M03/M03 Q1041 FG N (0°) -3°C -3°C
21/01/20 18:50 EGDY 211850Z AUTO 00000KT 0250 FG BKN004/// M02/M02 Q1040 FG N (0°) -2°C -2°C
21/01/20 17:50 EGDY 211750Z AUTO 00000KT 0150 FG BKN001/// M01/M02 Q1041 FG N (0°) -1°C -2°C
21/01/20 16:50 EGDY 211650Z AUTO 00000KT 0100 -SN VV/// M01/M01 Q1041 -SN N (0°) -1°C -1°C
21/01/20 15:50 EGDY 211550Z 01001KT 0100 FG VV/// 00/00 Q1041 NOSIG RMK RED RED FG N (10°) 1.2mph 0°C 0°C
21/01/20 14:50 EGDY 211450Z 30002KT 0100 FG VV/// 00/M00 Q1041 NOSIG RMK RED RED FG WNW (300°) 2.3mph 0°C 0°C
21/01/20 14:20 EGDY 211420Z 23002KT 0100 FG VV/// 00/00 Q1041 NOSIG RMK RED RED FG SW (230°) 2.3mph 0°C 0°C
21/01/20 13:50 EGDY 211350Z 21002KT 0100 FZFG VV/// 00/M00 Q1041 NOSIG RMK RED RED FZFG SSW (210°) 2.3mph 0°C 0°C
21/01/20 13:21 EGDY 211321Z 28002KT 0100 FZFG VV/// M00/M00 Q1041 BECMG 3500 BR RMK RED BECMG YLO1 FZFG W (280°) 2.3mph 0°C 0°C
21/01/20 12:50 EGDY 211250Z 28002KT 0100 FZFG VV/// M01/M01 Q1042 BECMG 3500 BR RMK RED BECMG YLO1 FZFG W (280°) 2.3mph -1°C -1°C
21/01/20 11:50 EGDY 211150Z 31002KT 0100 FZFG VV/// M02/M02 Q1043 BECMG 3500 BR RMK RED BECMG YLO1 FZFG NW (310°) 2.3mph -2°C -2°C
21/01/20 11:20 EGDY 211120Z 14001KT 0200 FZFG VV/// M02/M02 Q1043 BECMG 3500 BR RMK RED BECMG YLO1 FZFG SE (140°) 1.2mph -2°C -2°C
21/01/20 10:50 EGDY 211050Z 00000KT 0200 FZFG VV/// M02/M02 Q1043 BECMG 3500 BR RMK RED BECMG YLO1 FZFG N (0°) -2°C -2°C
21/01/20 10:20 EGDY 211020Z 17001KT 0100 FZFG VV/// M03/M03 Q1043 BECMG 3500 BR RMK RED BECMG YLO1 FZFG S (170°) 1.2mph -3°C -3°C
21/01/20 09:50 EGDY 210950Z 26001KT 0100 FZFG VV/// M03/M03 Q1043 BECMG 3500 BR RMK RED BECMG YLO1 FZFG W (260°) 1.2mph -3°C -3°C
21/01/20 08:50 EGDY 210850Z 31002KT 0100 FZFG VV/// M03/M04 Q1043 NOSIG RMK RED RED FZFG NW (310°) 2.3mph -3°C -4°C
21/01/20 08:20 EGDY 210820Z 17001KT 0100 FZFG M03/M04 Q1043 NOSIG RMK RED RED FZFG S (170°) 1.2mph -3°C -4°C
21/01/20 07:50 EGDY 210750Z 15001KT 0100 FZFG VV/// M03/M03 Q1043 NOSIG RMK RED RED FZFG SSE (150°) 1.2mph -3°C -3°C
21/01/20 06:50 EGDY 210650Z 00000KT 0100 FZFG VV/// M03/M03 Q1043 NOSIG RMK RED RED FZFG N (0°) -3°C -3°C
21/01/20 05:50 EGDY 210550Z 15001KT 0050 FZFG VV/// M02/M02 Q1043 RED FZFG SSE (150°) 1.2mph -2°C -2°C
21/01/20 04:50 EGDY 210450Z AUTO 17001KT 0100 FG VV/// M02/M02 Q1043 FG S (170°) 1.2mph -2°C -2°C
21/01/20 03:50 EGDY 210350Z 02001KT 0050 FZFG VV/// M02/M02 Q1043 RED FZFG NNE (20°) 1.2mph -2°C -2°C
21/01/20 02:50 EGDY 210250Z AUTO 11002KT 0250 FG BKN001/// M02/M03 Q1043 FG ESE (110°) 2.3mph -2°C -3°C
21/01/20 01:50 EGDY 210150Z 05002KT 0800 FZFG SKC M03/M04 Q1044 AMB FZFG NE (50°) 2.3mph -3°C -4°C
21/01/20 00:50 EGDY 210050Z 28001KT 0800 BCFG SKC M03/M04 Q1044 AMB BCFG W (280°) 1.2mph -3°C -4°C
20/01/20 23:50 EGDY 202350Z 12003KT 7000 BR SCT003 M02/M02 Q1045 YLO2 BR ESE (120°) 3.5mph -2°C -2°C
20/01/20 22:50 EGDY 202250Z AUTO 13001KT 8000 BR NCD M03/M04 Q1045 BR SE (130°) 1.2mph -3°C -4°C
20/01/20 21:50 EGDY 202150Z AUTO 16001KT 8000 BR NCD M02/M02 Q1045 BR SSE (160°) 1.2mph -2°C -2°C
20/01/20 20:50 EGDY 202050Z AUTO 11001KT 9000 BR NCD M02/M03 Q1046 BR ESE (110°) 1.2mph -2°C -3°C
20/01/20 19:50 EGDY 201950Z 29002KT CAVOK M00/M01 Q1046 BECMG 4000 BR RMK BLU BECMG GRN WNW (290°) 2.3mph 0°C -1°C
20/01/20 19:20 EGDY 201920Z 09001KT CAVOK M01/M02 Q1046 BECMG 4000 BR RMK BLU BECMG GRN E (90°) 1.2mph -1°C -2°C
20/01/20 18:50 EGDY 201850Z 13001KT CAVOK M00/M02 Q1046 BECMG 4000 BR RMK BLU BECMG GRN SE (130°) 1.2mph 0°C -2°C
20/01/20 18:20 EGDY 201820Z 03001KT CAVOK 01/M00 Q1046 BECMG 4000 BR RMK BLU BECMG GRN NNE (30°) 1.2mph 1°C 0°C
20/01/20 17:50 EGDY 201750Z 13001KT CAVOK 02/01 Q1046 BECMG 5000 BR RMK BLU BECMG WHT SE (130°) 1.2mph 2°C 1°C
20/01/20 16:50 EGDY 201650Z 21002KT CAVOK 04/01 Q1046 NOSIG RMK BLU BLU SSW (210°) 2.3mph 4°C 1°C
20/01/20 16:21 EGDY 201621Z 21002KT CAVOK 05/01 Q1047 NOSIG RMK BLU BLU SSW (210°) 2.3mph 5°C 1°C
20/01/20 15:50 EGDY 201550Z AUTO 22002KT 9999 NCD 06/01 Q1047 SW (220°) 2.3mph 6°C 1°C